PDT,Max TemperatureF,Mean TemperatureF,Min TemperatureF,Max Dew PointF,MeanDew PointF,Min DewpointF,Max Humidity, Mean Humidity, Min Humidity, Max Sea Level PressureIn, Mean Sea Level PressureIn, Min Sea Level PressureIn, Max VisibilityMiles, Mean VisibilityMiles, Min VisibilityMiles, Max Wind SpeedMPH, Mean Wind SpeedMPH, Max Gust SpeedMPH,PrecipitationIn, CloudCover, Events, WindDirDegrees
2013-3-1,64,55,45,46,44,41,77,63,48,30.37,30.34,30.28,10,10,10,30,15,37,0.00,1,,213
2013-3-2,59,50,41,45,42,32,96,74,51,30.27,30.11,30.00,10,10,10,17,6,24,T,4,,196
2013-3-3,56,42,27,31,21,16,60,40,20,30.26,30.17,30.06,10,10,10,23,8,30,0.00,0,,279
2013-3-4,54,37,20,26,22,18,92,59,26,30.33,30.22,30.05,10,10,10,10,4,16,0.00,0,,22
2013-3-5,49,37,24,37,30,22,92,73,53,30.04,29.93,29.82,10,10,10,15,6,18,T,6,Rain,324
2013-3-6,47,42,36,40,37,35,100,85,70,29.92,29.71,29.61,10,10,7,28,10,33,0.14,8,Rain,288
2013-3-7,56,43,29,35,29,22,85,56,26,30.07,30.03,29.93,10,10,10,21,11,24,0.00,1,,224
2013-3-8,56,40,24,37,30,21,100,71,41,30.19,30.10,30.06,10,10,10,13,4,20,0.00,0,,332
2013-3-9,59,41,23,34,29,22,92,64,36,30.42,30.35,30.21,10,10,10,8,2,12,0.00,0,,65
2013-3-10,55,40,25,42,33,24,92,67,41,30.44,30.35,30.28,10,10,10,15,4,24,T,3,Rain,53
2013-3-11,58,44,30,41,34,29,100,67,33,30.36,30.30,30.21,10,10,10,12,1,13,T,3,,96
2013-3-12,65,56,47,45,42,37,80,60,39,30.20,30.12,30.07,10,10,10,26,9,31,0.00,3,,211
2013-3-13,69,57,45,43,41,39,82,58,33,30.19,30.13,30.09,10,10,10,16,8,20,0.00,1,,206
2013-3-14,69,57,44,46,42,31,92,62,32,30.11,30.04,29.99,10,10,10,16,3,18,0.00,1,,214
2013-3-15,65,54,43,44,41,39,80,60,40,30.18,30.13,30.09,10,10,10,18,7,23,0.00,0,,231
2013-3-16,59,47,35,41,36,30,92,68,43,30.08,29.96,29.82,10,10,10,30,9,38,T,3,Rain,238
2013-3-17,55,47,38,31,27,22,70,49,28,30.13,30.07,29.93,10,10,10,30,21,38,0.00,1,,239
2013-3-18,59,45,30,31,26,21,75,50,24,30.24,30.13,30.07,10,10,10,33,13,41,0.00,1,,249
2013-3-19,56,39,21,37,25,19,92,61,30,30.26,30.10,29.80,10,10,10,15,4,17,0.03,4,Rain,328
2013-3-20,61,50,38,45,36,28,92,61,29,29.95,29.70,29.55,10,9,6,40,10,52,0.06,4,Rain,234
2013-3-21,54,44,34,30,27,23,70,52,33,30.14,30.09,29.98,10,10,10,30,18,36,T,3,Rain,242
2013-3-22,52,41,29,27,23,17,75,51,26,30.34,30.22,30.14,10,10,10,17,7,23,T,3,Rain,255
2013-3-23,51,36,20,28,21,17,92,61,29,30.42,30.36,30.30,10,10,10,9,2,13,0.00,0,,24
2013-3-24,55,37,18,26,21,16,91,58,24,30.38,30.29,30.18,10,10,10,8,3,10,0.00,0,,339
2013-3-25,60,44,27,34,27,22,78,55,32,30.19,30.10,29.98,10,10,10,12,6,17,0.00,6,,341
2013-3-26,63,52,41,39,32,29,66,48,30,30.04,29.98,29.94,10,10,10,12,3,13,0.00,6,,330
2013-3-27,66,56,46,46,43,39,93,69,44,29.99,29.95,29.92,10,10,10,10,4,13,T,5,Rain,64
2013-3-28,67,55,42,43,42,39,89,66,42,30.09,30.05,29.99,10,10,10,8,2,9,T,4,,337
2013-3-29,69,55,40,44,41,39,92,65,37,30.22,30.17,30.10,10,10,10,9,1,10,T,4,Rain,131
2013-3-30,73,53,33,47,39,32,100,64,27,30.28,30.19,30.09,10,10,9,9,3,12,0.00,0,,334
2013-3-31,76,54,32,47,39,31,96,63,29,30.09,30.00,29.88,10,10,9,13,4,17,0.00,0,,339